createdAt,value
2022-12-05T00:01:15.313Z,253.93
2022-12-05T00:03:43.125Z,286.73
2022-12-05T00:06:10.799Z,242.27
2022-12-05T00:08:40.313Z,260.03
2022-12-05T00:11:12.145Z,233.83
2022-12-05T00:13:41.104Z,264.90
2022-12-05T00:16:09.889Z,268.77
2022-12-05T00:18:37.981Z,244.07
2022-12-05T00:21:06.103Z,257.33
2022-12-05T00:23:34.812Z,276.67
2022-12-05T00:26:05.125Z,275.33
2022-12-05T00:28:33.192Z,284.37
2022-12-05T00:31:02.986Z,300.53
2022-12-05T00:33:30.980Z,284.60
2022-12-05T00:36:02.216Z,277.10
2022-12-05T00:38:30.013Z,286.07
2022-12-05T00:40:57.757Z,281.10
2022-12-05T00:43:26.871Z,296.73
2022-12-05T00:45:54.838Z,262.50
2022-12-05T00:48:25.178Z,299.77
2022-12-05T00:51:00.638Z,275.13
2022-12-05T00:53:28.318Z,290.47
2022-12-05T00:55:55.941Z,288.13
2022-12-05T00:58:23.634Z,279.90
2022-12-05T01:00:52.871Z,284.63
2022-12-05T01:03:20.710Z,298.70
2022-12-05T01:05:48.468Z,276.87
2022-12-05T01:08:16.383Z,277.67
2022-12-05T01:10:52.907Z,270.90
2022-12-05T01:13:21.063Z,293.47
2022-12-05T01:15:48.936Z,287.87
2022-12-05T01:18:18.877Z,303.00
2022-12-05T01:20:46.857Z,301.83
2022-12-05T01:23:15.134Z,316.73
2022-12-05T01:25:43.193Z,302.47
2022-12-05T01:28:11.340Z,286.80
2022-12-05T01:30:39.559Z,303.50
2022-12-05T01:33:07.367Z,303.67
2022-12-05T01:35:37.846Z,300.70
2022-12-05T01:38:06.119Z,307.47
2022-12-05T01:40:36.241Z,290.17
2022-12-05T01:43:04.209Z,348.50
2022-12-05T01:45:33.290Z,301.97
2022-12-05T01:48:03.887Z,321.00
2022-12-05T01:50:31.924Z,314.40
2022-12-05T01:53:00.989Z,302.67
2022-12-05T01:55:28.965Z,327.43
2022-12-05T01:57:58.102Z,307.63
2022-12-05T02:00:26.370Z,302.47
2022-12-05T02:02:55.362Z,294.97
2022-12-05T02:05:24.494Z,316.10
2022-12-05T02:07:53.150Z,304.47
2022-12-05T02:10:23.210Z,355.67
2022-12-05T02:12:52.945Z,342.67
2022-12-05T02:15:29.623Z,327.57
2022-12-05T02:18:05.772Z,345.07
2022-12-05T02:20:38.013Z,339.53
2022-12-05T02:23:27.205Z,335.23
2022-12-05T02:26:08.131Z,351.07
2022-12-05T02:28:47.543Z,348.87
2022-12-05T02:31:18.228Z,358.40
2022-12-05T02:33:48.759Z,362.13
2022-12-05T02:36:18.930Z,380.27
2022-12-05T02:38:51.297Z,379.37
2022-12-05T02:41:22.894Z,352.20
2022-12-05T02:43:54.337Z,339.10
2022-12-05T02:46:24.285Z,367.13
2022-12-05T02:48:54.514Z,307.77
2022-12-05T02:51:23.498Z,330.23
2022-12-05T02:53:51.700Z,325.83
2022-12-05T02:56:20.352Z,367.97
2022-12-05T02:58:50.882Z,349.77
2022-12-05T03:01:19.511Z,337.03
2022-12-05T03:03:49.130Z,329.63
2022-12-05T03:06:19.021Z,321.80
2022-12-05T03:08:49.326Z,347.10
2022-12-05T03:11:17.339Z,307.53
2022-12-05T03:13:46.277Z,280.27
2022-12-05T03:16:16.357Z,290.60
2022-12-05T03:18:46.948Z,281.63
2022-12-05T03:21:19.896Z,285.93
2022-12-05T03:23:50.469Z,264.23
2022-12-05T03:26:20.785Z,274.30
2022-12-05T03:28:55.592Z,273.37
2022-12-05T03:31:27.401Z,254.10
2022-12-05T03:33:58.039Z,251.70
2022-12-05T03:36:30.243Z,235.00
2022-12-05T03:38:58.938Z,250.77
2022-12-05T03:41:32.357Z,242.20
2022-12-05T03:44:02.398Z,270.43
2022-12-05T03:46:34.786Z,272.83
2022-12-05T03:49:05.171Z,281.67
2022-12-05T03:51:36.465Z,250.87
2022-12-05T03:54:06.543Z,259.43
2022-12-05T03:56:36.317Z,267.23
2022-12-05T03:59:19.011Z,245.67
2022-12-05T04:01:48.195Z,251.30
2022-12-05T04:04:18.174Z,268.00
2022-12-05T04:06:48.365Z,252.17
2022-12-05T04:09:18.256Z,243.70
2022-12-05T04:11:48.056Z,259.57
2022-12-05T04:14:18.760Z,263.27
2022-12-05T04:17:06.407Z,289.63
2022-12-05T04:19:51.809Z,262.40
2022-12-05T04:22:21.231Z,255.57
2022-12-05T04:25:07.238Z,246.07
2022-12-05T04:27:40.049Z,248.07
2022-12-05T04:30:09.541Z,247.33
2022-12-05T04:32:39.627Z,231.63
2022-12-05T04:35:10.762Z,281.47
2022-12-05T04:37:42.024Z,230.67
2022-12-05T04:40:13.172Z,217.67
2022-12-05T04:42:42.622Z,234.67
2022-12-05T04:45:12.739Z,209.00
2022-12-05T04:47:42.591Z,202.93
2022-12-05T04:50:11.940Z,215.93
2022-12-05T04:52:41.888Z,193.23
2022-12-05T04:55:10.674Z,202.57
2022-12-05T04:57:41.851Z,195.17
2022-12-05T05:00:10.184Z,224.63
2022-12-05T05:02:41.724Z,190.20
2022-12-05T05:05:14.138Z,171.37
2022-12-05T05:07:47.670Z,178.93
2022-12-05T05:10:17.334Z,173.97
2022-12-05T05:12:45.002Z,184.10
2022-12-05T05:15:13.383Z,170.73
2022-12-05T05:17:41.442Z,183.40
2022-12-05T05:20:24.673Z,176.87
2022-12-05T05:22:54.195Z,179.57
2022-12-05T05:25:22.228Z,170.93
2022-12-05T05:27:51.192Z,162.10
2022-12-05T05:30:19.405Z,145.90
2022-12-05T05:32:47.473Z,169.37
2022-12-05T05:35:15.285Z,142.13
2022-12-05T05:37:43.102Z,133.20
2022-12-05T05:40:14.652Z,147.77
2022-12-05T05:42:45.832Z,136.17
2022-12-05T05:45:14.399Z,122.17
2022-12-05T05:47:42.391Z,138.60
2022-12-05T05:50:15.001Z,133.20
2022-12-05T05:52:45.613Z,136.80
2022-12-05T05:55:14.949Z,132.73
2022-12-05T05:57:42.605Z,131.50
2022-12-05T06:00:11.322Z,127.53
2022-12-05T06:02:39.363Z,118.67
2022-12-05T06:05:07.608Z,137.07
2022-12-05T06:07:35.476Z,123.43
2022-12-05T06:10:03.334Z,145.13
2022-12-05T06:12:32.289Z,127.87
2022-12-05T06:15:00.194Z,121.83
2022-12-05T06:17:28.362Z,116.47
2022-12-05T06:19:56.213Z,123.77
2022-12-05T06:22:24.261Z,119.80
2022-12-05T06:24:52.072Z,138.80
2022-12-05T06:27:19.992Z,112.33
2022-12-05T06:29:49.065Z,118.30
2022-12-05T06:32:17.129Z,114.73
2022-12-05T06:34:44.729Z,119.13
2022-12-05T06:37:13.196Z,120.13
2022-12-05T06:39:41.065Z,119.67
2022-12-05T06:42:08.691Z,121.70
2022-12-05T06:44:36.670Z,130.53
2022-12-05T06:47:07.477Z,127.23
2022-12-05T06:49:38.128Z,121.43
2022-12-05T06:52:06.254Z,118.73
2022-12-05T06:54:34.142Z,130.63
2022-12-05T06:57:01.791Z,122.23
2022-12-05T06:59:29.380Z,127.50
2022-12-05T07:01:56.247Z,131.97
2022-12-05T07:04:25.374Z,124.40
2022-12-05T07:06:53.795Z,135.13
2022-12-05T07:09:22.872Z,110.57
2022-12-05T07:11:51.012Z,127.60
2022-12-05T07:14:45.864Z,132.17
2022-12-05T07:17:06.667Z,120.60
2022-12-05T07:19:35.761Z,131.77
2022-12-05T07:22:03.482Z,137.67
2022-12-05T07:24:31.435Z,125.70
2022-12-05T07:26:59.738Z,129.43
2022-12-05T07:29:27.378Z,129.70
2022-12-05T07:31:55.590Z,121.10
2022-12-05T07:34:23.348Z,107.17
2022-12-05T07:36:52.421Z,114.27
2022-12-05T07:39:20.063Z,118.20
2022-12-05T07:41:47.821Z,119.93
2022-12-05T07:44:17.896Z,125.80
2022-12-05T07:46:46.395Z,123.23
2022-12-05T07:49:15.739Z,115.57
2022-12-05T07:51:43.834Z,117.73
2022-12-05T07:54:13.736Z,101.00
2022-12-05T07:56:46.301Z,123.90
2022-12-05T07:59:15.723Z,110.60
2022-12-05T08:01:49.363Z,120.50
2022-12-05T08:04:17.501Z,112.87
2022-12-05T08:06:45.104Z,111.07
2022-12-05T08:09:14.444Z,122.67
2022-12-05T08:11:42.500Z,122.37
2022-12-05T08:14:11.138Z,121.87
2022-12-05T08:16:39.059Z,130.93
2022-12-05T08:19:08.223Z,113.53
2022-12-05T08:21:36.265Z,118.67
2022-12-05T08:24:05.195Z,121.20
2022-12-05T08:26:35.178Z,129.93
2022-12-05T08:29:04.237Z,131.13
2022-12-05T08:31:32.990Z,106.20
2022-12-05T08:34:01.530Z,118.33
2022-12-05T08:36:29.789Z,128.30
2022-12-05T08:38:58.216Z,105.90
2022-12-05T08:41:28.764Z,103.03
2022-12-05T08:43:58.237Z,110.33
2022-12-05T08:46:26.027Z,108.73
2022-12-05T08:48:54.284Z,109.63
2022-12-05T08:51:22.117Z,122.93
2022-12-05T08:53:49.865Z,112.23
2022-12-05T08:56:23.379Z,117.87
2022-12-05T08:58:55.653Z,109.47
2022-12-05T09:01:30.573Z,109.57
2022-12-05T09:04:01.513Z,101.83
2022-12-05T09:06:30.549Z,102.83
2022-12-05T09:08:59.197Z,105.90
2022-12-05T09:11:28.444Z,118.40
2022-12-05T09:13:59.212Z,101.00
2022-12-05T09:16:36.485Z,109.40
2022-12-05T09:19:12.005Z,113.57
2022-12-05T09:21:40.068Z,106.20
2022-12-05T09:24:08.071Z,98.33
2022-12-05T09:26:36.123Z,104.20
2022-12-05T09:29:04.191Z,89.00
2022-12-05T09:31:34.778Z,97.40
2022-12-05T09:34:03.744Z,94.83
2022-12-05T09:36:32.116Z,101.43
2022-12-05T09:39:01.398Z,94.00
2022-12-05T09:42:03.270Z,97.40
2022-12-05T09:44:37.370Z,90.20
2022-12-05T09:47:12.981Z,86.10
2022-12-05T09:49:45.087Z,97.63
2022-12-05T09:52:22.941Z,92.00
2022-12-05T09:54:51.951Z,89.57
2022-12-05T09:57:21.593Z,94.03
2022-12-05T09:59:49.596Z,100.40
2022-12-05T10:02:23.040Z,97.80
2022-12-05T10:05:00.401Z,95.50
2022-12-05T10:07:32.262Z,99.80
2022-12-05T10:10:21.054Z,97.13
2022-12-05T10:12:54.026Z,105.83
2022-12-05T10:15:27.378Z,87.77
2022-12-05T10:17:59.362Z,92.80
2022-12-05T10:20:29.814Z,92.07
2022-12-05T10:22:59.151Z,99.03
2022-12-05T10:25:28.207Z,106.47
2022-12-05T10:27:57.532Z,86.57
2022-12-05T10:30:26.137Z,88.50
2022-12-05T10:32:54.737Z,93.17
2022-12-05T10:35:24.864Z,94.13
2022-12-05T10:37:53.593Z,104.33
2022-12-05T10:40:21.629Z,98.57
2022-12-05T10:42:50.140Z,94.83
2022-12-05T10:45:19.829Z,91.43
2022-12-05T10:47:48.433Z,105.70
2022-12-05T10:50:23.122Z,101.07
2022-12-05T10:52:52.973Z,100.83
2022-12-05T10:55:20.741Z,99.10
2022-12-05T10:57:50.971Z,87.00
2022-12-05T11:00:21.275Z,88.80
2022-12-05T11:02:50.436Z,98.30
2022-12-05T11:05:27.774Z,99.27
2022-12-05T11:07:57.600Z,94.70
2022-12-05T11:10:27.612Z,87.97
2022-12-05T11:12:57.167Z,109.63
2022-12-05T11:15:26.038Z,106.03
2022-12-05T11:17:54.671Z,108.83
2022-12-05T11:20:37.102Z,100.47
2022-12-05T11:23:18.569Z,108.97
2022-12-05T11:25:46.706Z,111.47
2022-12-05T11:28:25.157Z,106.53
2022-12-05T11:30:57.757Z,104.53
2022-12-05T11:33:27.513Z,107.70
2022-12-05T11:35:57.326Z,101.83
2022-12-05T11:38:28.424Z,100.73
2022-12-05T11:41:00.215Z,112.80
2022-12-05T11:43:39.225Z,109.50
2022-12-05T11:46:11.752Z,118.67
2022-12-05T11:48:47.725Z,116.80
2022-12-05T11:51:27.426Z,105.27
2022-12-05T11:54:02.683Z,105.37
2022-12-05T11:56:36.610Z,99.53
2022-12-05T11:59:14.524Z,106.17
2022-12-05T12:01:47.438Z,121.00
2022-12-05T12:04:38.295Z,122.03
2022-12-05T12:07:17.552Z,118.47
2022-12-05T12:09:51.450Z,122.07
2022-12-05T12:12:25.755Z,118.67
2022-12-05T12:14:59.353Z,134.40
2022-12-05T12:17:30.295Z,124.13
2022-12-05T12:20:03.807Z,120.67
2022-12-05T12:22:39.113Z,134.40
2022-12-05T12:25:21.412Z,138.60
2022-12-05T12:28:05.303Z,131.20
2022-12-05T12:30:41.651Z,120.57
2022-12-05T12:33:12.873Z,135.40
2022-12-05T12:35:43.035Z,127.90
2022-12-05T12:38:34.559Z,132.63
2022-12-05T12:41:08.634Z,149.27
2022-12-05T12:43:59.130Z,151.17
2022-12-05T12:46:34.403Z,137.10
2022-12-05T12:49:09.680Z,146.87
2022-12-05T12:51:42.590Z,145.17
2022-12-05T12:54:29.219Z,137.33
2022-12-05T12:57:14.504Z,149.93
2022-12-05T12:59:51.647Z,146.07
2022-12-05T13:02:23.048Z,139.43
2022-12-05T13:04:53.682Z,160.47
2022-12-05T13:07:25.022Z,147.00
2022-12-05T13:09:55.362Z,153.70
2022-12-05T13:12:26.339Z,171.47
2022-12-05T13:14:56.585Z,179.20
2022-12-05T13:17:25.170Z,180.30
2022-12-05T13:19:54.773Z,176.70
2022-12-05T13:22:24.900Z,166.47
2022-12-05T13:24:52.529Z,177.07
2022-12-05T13:27:21.530Z,183.50
2022-12-05T13:29:52.211Z,168.60
2022-12-05T13:32:27.843Z,178.53
2022-12-05T13:34:57.776Z,198.33
2022-12-05T13:37:44.529Z,193.57
2022-12-05T13:40:56.950Z,196.30
2022-12-05T13:43:26.600Z,195.00
2022-12-05T13:46:08.007Z,219.60
2022-12-05T13:48:37.743Z,198.30
2022-12-05T13:51:07.686Z,178.53
2022-12-05T13:53:39.741Z,187.97
2022-12-05T13:56:08.922Z,195.03
2022-12-05T13:58:44.061Z,220.07
2022-12-05T14:01:38.016Z,197.77
2022-12-05T14:04:23.410Z,221.27
2022-12-05T14:06:58.465Z,189.80
2022-12-05T14:09:30.066Z,207.67
2022-12-05T14:12:16.369Z,193.40
2022-12-05T14:15:00.543Z,228.87
2022-12-05T14:17:30.326Z,196.33
2022-12-05T14:20:10.644Z,215.53
2022-12-05T14:22:57.344Z,239.00
2022-12-05T14:25:35.496Z,211.20
2022-12-05T14:28:12.134Z,200.70
2022-12-05T14:30:46.342Z,249.00
2022-12-05T14:33:15.087Z,243.07
2022-12-05T14:35:46.264Z,274.90
2022-12-05T14:38:21.237Z,272.10
2022-12-05T14:40:49.712Z,280.93
2022-12-05T14:43:20.655Z,299.03
2022-12-05T14:45:55.025Z,259.37
2022-12-05T14:48:27.567Z,240.70
2022-12-05T14:50:57.484Z,252.17
2022-12-05T14:53:30.190Z,289.30
2022-12-05T14:56:03.289Z,273.57
2022-12-05T14:58:37.912Z,316.93
2022-12-05T15:01:09.499Z,324.23
2022-12-05T15:03:39.093Z,268.97
2022-12-05T15:06:16.031Z,334.33
2022-12-05T15:08:45.784Z,267.67
2022-12-05T15:11:28.011Z,263.30
2022-12-05T15:13:57.717Z,264.00
2022-12-05T15:16:29.716Z,292.63
2022-12-05T15:18:59.690Z,280.13
2022-12-05T15:21:32.118Z,298.73
2022-12-05T15:24:01.022Z,303.43
2022-12-05T15:26:46.275Z,288.73
2022-12-05T15:29:17.010Z,321.87
2022-12-05T15:31:46.267Z,358.30
2022-12-05T15:34:15.846Z,315.10
2022-12-05T15:36:46.882Z,317.37
2022-12-05T15:39:19.657Z,325.43
2022-12-05T15:41:47.473Z,312.57
2022-12-05T15:44:15.149Z,332.30
2022-12-05T15:46:43.138Z,286.83
2022-12-05T15:49:18.089Z,329.73
2022-12-05T15:51:47.982Z,372.90
2022-12-05T15:54:18.545Z,334.33
2022-12-05T15:56:50.204Z,353.23
2022-12-05T15:59:20.574Z,349.17
2022-12-05T16:01:51.710Z,358.13
2022-12-05T16:04:29.198Z,332.00
2022-12-05T16:07:01.476Z,390.63
2022-12-05T16:09:32.324Z,354.80
2022-12-05T16:12:01.388Z,396.70
2022-12-05T16:14:58.209Z,337.50
2022-12-05T16:17:20.648Z,395.10
2022-12-05T16:19:48.574Z,344.43
2022-12-05T16:22:25.596Z,308.97
2022-12-05T16:24:57.492Z,318.57
2022-12-05T16:27:27.597Z,315.33
2022-12-05T16:30:08.943Z,387.63
2022-12-05T16:32:37.159Z,386.37
2022-12-05T16:35:05.165Z,355.13
2022-12-05T16:37:34.367Z,311.13
2022-12-05T16:40:02.054Z,326.70
2022-12-05T16:42:30.498Z,340.87
2022-12-05T16:45:02.201Z,347.50
2022-12-05T16:47:54.742Z,391.87
2022-12-05T16:50:30.191Z,413.43
2022-12-05T16:53:15.357Z,376.43
2022-12-05T16:55:44.292Z,408.00
2022-12-05T16:58:16.862Z,323.83
2022-12-05T17:00:44.933Z,456.93
2022-12-05T17:03:33.551Z,372.90
2022-12-05T17:06:01.376Z,387.70
2022-12-05T17:08:30.397Z,355.97
2022-12-05T17:10:58.513Z,308.43
2022-12-05T17:13:26.487Z,359.80
2022-12-05T17:15:54.405Z,357.80
2022-12-05T17:18:26.578Z,416.70
2022-12-05T17:20:58.231Z,321.80
2022-12-05T17:23:25.880Z,362.83
2022-12-05T17:25:55.674Z,314.67
2022-12-05T17:28:24.228Z,288.80
2022-12-05T17:30:52.099Z,350.53
2022-12-05T17:33:20.576Z,334.63
2022-12-05T17:35:50.259Z,315.90
2022-12-05T17:38:17.873Z,312.83
2022-12-05T17:40:45.803Z,296.97
2022-12-05T17:43:17.618Z,315.10
2022-12-05T17:45:49.468Z,266.70
2022-12-05T17:48:17.427Z,302.87
2022-12-05T17:50:46.916Z,320.93
2022-12-05T17:53:15.254Z,265.93
2022-12-05T17:55:43.313Z,289.43
2022-12-05T17:58:12.371Z,255.63
2022-12-05T18:00:41.788Z,282.37
2022-12-05T18:03:12.292Z,425.50
2022-12-05T18:06:06.207Z,304.77
2022-12-05T18:08:34.395Z,299.50
2022-12-05T18:11:02.111Z,243.40
2022-12-05T18:13:29.917Z,280.60
2022-12-05T18:15:59.957Z,276.60
2022-12-05T18:18:29.331Z,281.33
2022-12-05T18:21:04.180Z,286.87
2022-12-05T18:23:31.892Z,273.60
2022-12-05T18:26:00.292Z,239.93
2022-12-05T18:28:28.488Z,267.03
2022-12-05T18:31:10.739Z,326.70
2022-12-05T18:33:39.172Z,280.57
2022-12-05T18:36:08.711Z,290.97
2022-12-05T18:38:37.407Z,259.20
2022-12-05T18:41:05.743Z,237.83
2022-12-05T18:43:33.861Z,253.57
2022-12-05T18:46:02.405Z,225.87
2022-12-05T18:48:42.557Z,216.83
2022-12-05T18:51:14.255Z,222.47
2022-12-05T18:53:42.642Z,255.60
2022-12-05T18:56:22.029Z,239.80
2022-12-05T18:58:53.822Z,259.10
2022-12-05T19:01:22.010Z,266.40
2022-12-05T19:03:51.535Z,238.67
2022-12-05T19:06:20.630Z,281.93
2022-12-05T19:08:48.492Z,241.33
2022-12-05T19:11:17.145Z,223.83
2022-12-05T19:13:45.028Z,233.10
2022-12-05T19:16:16.779Z,216.40
2022-12-05T19:18:45.032Z,216.47
2022-12-05T19:21:14.015Z,232.90
2022-12-05T19:23:41.750Z,215.17
2022-12-05T19:26:10.377Z,235.50
2022-12-05T19:28:39.082Z,235.27
2022-12-05T19:31:08.687Z,229.77
2022-12-05T19:33:37.232Z,211.37
2022-12-05T19:36:06.973Z,215.47
2022-12-05T19:38:38.959Z,199.60
2022-12-05T19:41:08.280Z,267.13
2022-12-05T19:43:36.531Z,277.37
2022-12-05T19:46:04.927Z,266.13
2022-12-05T19:48:33.381Z,274.63
2022-12-05T19:51:01.883Z,326.27
2022-12-05T19:53:30.165Z,279.13
2022-12-05T19:56:02.584Z,345.97
2022-12-05T19:58:32.324Z,283.47
2022-12-05T20:01:06.972Z,255.73
2022-12-05T20:03:35.144Z,286.57
2022-12-05T20:06:02.730Z,233.07
2022-12-05T20:08:30.639Z,267.27
2022-12-05T20:10:59.041Z,283.83
2022-12-05T20:16:16.901Z,282.17
2022-12-05T20:18:44.634Z,252.47
2022-12-05T20:21:14.006Z,224.40
2022-12-05T20:23:41.808Z,246.57
2022-12-05T20:26:10.686Z,228.10
2022-12-05T20:28:40.084Z,212.57
2022-12-05T20:31:08.307Z,175.73
2022-12-05T20:33:36.338Z,188.20
2022-12-05T20:36:06.228Z,153.50
2022-12-05T20:38:35.853Z,173.03
2022-12-05T20:41:04.431Z,148.07
2022-12-05T20:43:32.599Z,134.63
2022-12-05T20:46:07.776Z,146.50
2022-12-05T20:48:35.730Z,131.83
2022-12-05T20:51:08.085Z,127.07
2022-12-05T20:53:36.539Z,126.67
2022-12-05T20:56:05.181Z,111.77
2022-12-05T20:58:33.522Z,116.50
2022-12-05T21:01:01.650Z,99.90
2022-12-05T21:03:31.205Z,104.57
2022-12-05T21:06:00.308Z,120.93
2022-12-05T21:08:27.974Z,94.60
2022-12-05T21:10:55.815Z,106.03
2022-12-05T21:13:23.813Z,113.57
2022-12-05T21:15:51.621Z,102.73
2022-12-05T21:18:19.273Z,122.07
2022-12-05T21:20:59.638Z,109.20
2022-12-05T21:23:27.510Z,104.87
2022-12-05T21:25:55.179Z,89.37
2022-12-05T21:28:23.193Z,86.83
2022-12-05T21:30:50.789Z,103.77
2022-12-05T21:33:18.871Z,95.57
2022-12-05T21:35:54.043Z,81.77
2022-12-05T21:38:23.156Z,85.77
2022-12-05T21:40:50.775Z,91.67
2022-12-05T21:43:18.721Z,80.37
2022-12-05T21:45:51.600Z,89.70
2022-12-05T21:48:20.942Z,84.63
2022-12-05T21:50:48.828Z,85.30
2022-12-05T21:53:16.963Z,88.47
2022-12-05T21:55:45.919Z,87.63
2022-12-05T21:58:13.941Z,82.90
2022-12-05T22:00:41.708Z,89.87
2022-12-05T22:03:14.704Z,87.13
2022-12-05T22:05:43.456Z,80.43
2022-12-05T22:08:12.028Z,84.63
2022-12-05T22:10:39.948Z,90.27
2022-12-05T22:13:08.885Z,98.43
2022-12-05T22:15:36.654Z,107.30
2022-12-05T22:18:04.694Z,81.13
2022-12-05T22:20:32.360Z,98.47
2022-12-05T22:23:00.064Z,89.93
2022-12-05T22:25:27.901Z,92.87
2022-12-05T22:27:56.317Z,80.57
2022-12-05T22:30:25.370Z,100.13
2022-12-05T22:32:54.071Z,96.67
2022-12-05T22:35:21.902Z,100.70
2022-12-05T22:37:49.616Z,105.77
2022-12-05T22:40:17.385Z,90.67
2022-12-05T22:42:45.103Z,104.13
2022-12-05T22:45:13.235Z,105.87
2022-12-05T22:47:42.387Z,119.23
2022-12-05T22:50:11.025Z,103.33
2022-12-05T22:52:38.621Z,110.50
2022-12-05T22:55:07.067Z,95.00
2022-12-05T22:57:34.694Z,94.70
2022-12-05T23:00:02.437Z,105.27
2022-12-05T23:02:30.280Z,95.10
2022-12-05T23:04:59.384Z,100.37
2022-12-05T23:07:27.065Z,95.30
2022-12-05T23:09:54.955Z,112.20
2022-12-05T23:12:22.591Z,99.70
2022-12-05T23:14:51.002Z,94.60
2022-12-05T23:17:18.796Z,86.47
2022-12-05T23:19:46.472Z,93.93
2022-12-05T23:22:15.482Z,90.50
2022-12-05T23:24:43.526Z,94.30
2022-12-05T23:27:11.177Z,83.53
2022-12-05T23:29:38.923Z,86.53
2022-12-05T23:32:06.693Z,90.80
2022-12-05T23:34:36.960Z,76.40
2022-12-05T23:37:04.922Z,75.83
2022-12-05T23:39:34.113Z,81.27
2022-12-05T23:42:01.734Z,67.13
2022-12-05T23:44:29.495Z,66.67
2022-12-05T23:46:57.188Z,79.33
2022-12-05T23:49:24.925Z,57.30
2022-12-05T23:51:53.129Z,75.23
2022-12-05T23:54:20.821Z,72.13
2022-12-05T23:56:49.805Z,68.13
2022-12-05T23:59:17.763Z,64.00
